Time;durP1;ratioP1;P1;durP2;ratioP2;P2;SDS_P1;SDS_P2;PMS_P1;PMS_P2;Temp;Humidity;BMP_temperature;BMP_pressure;BME280_temperature;BME280_humidity;BME280_pressure;Samples;Min_cycle;Max_cycle;Signal;HPM_P1;HPM_P2
2023/07/04 00:01:13;;;;;;;21.23;12.75;;;15.70;99.90;;;;;;4992623;28;20697;-81
2023/07/04 00:03:45;;;;;;;20.58;11.73;;;15.80;99.90;;;;;;4991994;28;20236;-81
2023/07/04 00:06:18;;;;;;;22.15;11.93;;;15.80;99.90;;;;;;4991546;28;20658;-81
2023/07/04 00:08:49;;;;;;;17.92;10.88;;;15.90;99.90;;;;;;4998372;28;20194;-81
2023/07/04 00:11:21;;;;;;;15.38;9.75;;;15.90;99.90;;;;;;5008190;28;20268;-81
2023/07/04 00:13:54;;;;;;;15.20;9.43;;;15.90;99.90;;;;;;4991566;28;20202;-80
2023/07/04 00:16:25;;;;;;;14.95;9.15;;;15.90;99.90;;;;;;4992012;28;20202;-80
2023/07/04 00:18:56;;;;;;;14.48;9.50;;;15.90;99.90;;;;;;4991688;28;20202;-81
2023/07/04 00:21:28;;;;;;;12.63;8.68;;;15.90;99.90;;;;;;4991277;28;20206;-81
2023/07/04 00:23:59;;;;;;;13.65;9.27;;;15.90;99.90;;;;;;4991277;28;20705;-81
2023/07/04 00:26:31;;;;;;;13.25;8.80;;;16.00;99.90;;;;;;4996883;28;20240;-81
2023/07/04 00:29:04;;;;;;;13.20;9.20;;;16.10;99.90;;;;;;5009276;28;20261;-80
2023/07/04 00:31:35;;;;;;;11.73;8.68;;;16.10;99.90;;;;;;5010645;28;20194;-81
2023/07/04 00:34:06;;;;;;;13.88;8.40;;;16.10;99.90;;;;;;5010641;28;20206;-81
2023/07/04 00:36:37;;;;;;;14.02;8.77;;;16.10;99.90;;;;;;5010729;28;20252;-80
2023/07/04 00:39:09;;;;;;;12.05;8.50;;;16.20;99.90;;;;;;5010592;28;20194;-81
2023/07/04 00:41:40;;;;;;;11.15;8.23;;;16.10;99.90;;;;;;5010557;28;20198;-81
2023/07/04 00:44:24;;;;;;;13.32;8.93;;;16.10;99.90;;;;;;5011794;28;20627;-82
2023/07/04 00:47:06;;;;;;;11.68;8.27;;;16.20;99.90;;;;;;4998109;28;20206;-82
2023/07/04 00:49:42;;;;;;;13.27;8.40;;;16.10;99.90;;;;;;4995088;28;20203;-82
2023/07/04 00:52:16;;;;;;;12.50;7.53;;;16.10;99.90;;;;;;4995145;28;20645;-80
2023/07/04 00:54:52;;;;;;;12.82;7.93;;;16.10;99.90;;;;;;5012132;28;20564;-81
2023/07/04 00:57:25;;;;;;;11.00;7.30;;;16.10;99.90;;;;;;5015202;28;20197;-79
2023/07/04 01:00:00;;;;;;;12.07;7.68;;;16.10;99.90;;;;;;5014410;28;20208;-81
2023/07/04 01:02:35;;;;;;;11.23;7.78;;;16.10;99.90;;;;;;5008800;28;20579;-81
2023/07/04 01:05:07;;;;;;;10.63;7.18;;;16.10;99.90;;;;;;4994706;28;20688;-83
2023/07/04 01:07:41;;;;;;;9.40;6.53;;;16.20;99.90;;;;;;4997285;28;20232;-82
2023/07/04 01:10:17;;;;;;;9.98;6.55;;;16.20;99.90;;;;;;5010208;28;20758;-82
2023/07/04 01:12:49;;;;;;;10.73;7.00;;;16.20;99.90;;;;;;5011815;28;20206;-82
2023/07/04 01:15:23;;;;;;;11.75;7.70;;;16.20;99.90;;;;;;5014545;28;20213;-82
2023/07/04 01:17:55;;;;;;;9.02;7.20;;;16.20;99.90;;;;;;5014050;28;20587;-82
2023/07/04 01:20:26;;;;;;;10.18;7.07;;;16.20;99.90;;;;;;5002502;28;20213;-82
2023/07/04 01:23:06;;;;;;;14.85;10.38;;;16.30;99.90;;;;;;5000306;28;20218;-82
2023/07/04 01:25:43;;;;;;;16.95;10.48;;;16.30;99.90;;;;;;5006409;28;20209;-82
2023/07/04 01:28:18;;;;;;;14.93;9.32;;;16.30;99.90;;;;;;5012765;28;20572;-82
2023/07/04 01:30:50;;;;;;;14.45;9.40;;;16.40;99.90;;;;;;5013361;28;20212;-82
2023/07/04 01:33:24;;;;;;;16.25;10.45;;;16.40;99.90;;;;;;5013727;28;20198;-82
2023/07/04 01:35:56;;;;;;;15.15;10.88;;;16.40;99.90;;;;;;5012414;28;20206;-83
2023/07/04 01:38:30;;;;;;;14.55;10.02;;;16.50;99.90;;;;;;4994202;28;20213;-82
2023/07/04 01:41:01;;;;;;;16.83;11.05;;;16.50;99.90;;;;;;4999271;28;20240;-83
2023/07/04 01:43:34;;;;;;;17.67;10.98;;;16.50;99.90;;;;;;5017358;28;20221;-82
2023/07/04 01:46:06;;;;;;;13.13;9.85;;;16.50;99.90;;;;;;5034075;28;20193;-82
2023/07/04 01:48:37;;;;;;;13.85;10.18;;;16.50;99.90;;;;;;5034034;28;20687;-83
2023/07/04 01:51:08;;;;;;;18.25;13.45;;;16.50;99.90;;;;;;5033515;28;20208;-83
2023/07/04 01:53:39;;;;;;;16.27;11.88;;;16.50;99.90;;;;;;5030410;28;20234;-82
2023/07/04 01:56:10;;;;;;;16.55;10.40;;;16.50;99.90;;;;;;5013048;28;20198;-83
2023/07/04 01:58:43;;;;;;;15.32;11.40;;;16.50;99.90;;;;;;5013081;28;20205;-83
2023/07/04 02:01:18;;;;;;;13.98;9.50;;;16.60;99.90;;;;;;5013662;28;20206;-83
2023/07/04 02:03:49;;;;;;;12.32;9.52;;;16.60;99.90;;;;;;5013073;28;20226;-81
2023/07/04 02:06:20;;;;;;;12.50;9.27;;;16.60;99.90;;;;;;5013259;28;20202;-81
2023/07/04 02:08:53;;;;;;;11.20;8.68;;;16.70;99.90;;;;;;5013145;28;20213;-82
2023/07/04 02:11:24;;;;;;;15.73;11.13;;;16.70;99.90;;;;;;5010646;28;20202;-82
2023/07/04 02:13:57;;;;;;;16.08;10.40;;;16.80;99.90;;;;;;5013081;28;20220;-82
2023/07/04 02:16:29;;;;;;;13.07;9.77;;;16.70;99.90;;;;;;5019620;28;20202;-83
2023/07/04 02:19:00;;;;;;;12.07;8.98;;;16.80;99.90;;;;;;5013463;28;20201;-82
2023/07/04 02:21:31;;;;;;;12.27;9.15;;;16.80;99.90;;;;;;5012824;28;20202;-82
2023/07/04 02:24:02;;;;;;;15.82;10.90;;;16.80;99.90;;;;;;5012556;28;20720;-82
2023/07/04 02:26:33;;;;;;;16.90;12.02;;;16.80;99.90;;;;;;5011709;28;20225;-81
2023/07/04 02:29:07;;;;;;;11.50;8.48;;;16.90;99.90;;;;;;4997395;28;20195;-81
2023/07/04 02:31:38;;;;;;;12.70;9.05;;;16.90;99.90;;;;;;5012897;28;20194;-81
2023/07/04 02:34:09;;;;;;;11.75;9.18;;;16.80;99.90;;;;;;5013764;28;20202;-82
2023/07/04 02:36:42;;;;;;;12.23;9.35;;;16.90;99.90;;;;;;5014231;28;20201;-82
2023/07/04 02:39:13;;;;;;;12.65;8.52;;;16.90;99.90;;;;;;5012735;28;20202;-81
2023/07/04 02:41:45;;;;;;;13.25;9.88;;;16.90;99.90;;;;;;5011987;28;20204;-81
2023/07/04 02:44:18;;;;;;;14.40;9.63;;;16.90;99.90;;;;;;5008151;28;20705;-82
2023/07/04 02:46:49;;;;;;;12.75;9.65;;;16.90;99.90;;;;;;4997780;28;20573;-83
2023/07/04 02:49:20;;;;;;;12.88;9.65;;;16.90;99.90;;;;;;5011656;28;20208;-82
2023/07/04 02:51:51;;;;;;;10.70;8.93;;;17.00;99.90;;;;;;5032331;28;20248;-81
2023/07/04 02:54:22;;;;;;;14.25;10.55;;;16.90;99.90;;;;;;5032341;28;20197;-83
2023/07/04 02:56:53;;;;;;;13.98;9.77;;;16.90;99.90;;;;;;5031871;28;20664;-82
2023/07/04 02:59:26;;;;;;;11.50;9.00;;;16.80;99.90;;;;;;5031835;28;20597;-81
2023/07/04 03:01:58;;;;;;;13.57;9.80;;;16.80;99.90;;;;;;5002548;28;20666;-84
2023/07/04 03:04:29;;;;;;;16.80;12.40;;;16.80;99.90;;;;;;4992347;28;20233;-83
2023/07/04 03:07:00;;;;;;;18.27;12.82;;;16.80;99.90;;;;;;4991474;28;20225;-82
2023/07/04 03:09:31;;;;;;;16.42;12.43;;;16.80;99.90;;;;;;4998026;28;20228;-82
2023/07/04 03:12:02;;;;;;;19.60;12.57;;;16.80;99.90;;;;;;5011904;28;20983;-83
2023/07/04 03:14:35;;;;;;;15.30;12.55;;;16.80;99.90;;;;;;5011694;28;20703;-83
2023/07/04 03:17:06;;;;;;;16.55;12.85;;;16.80;99.90;;;;;;5010701;28;20201;-83
2023/07/04 03:19:37;;;;;;;17.70;12.65;;;16.70;99.90;;;;;;5001314;28;20206;-83
2023/07/04 03:22:09;;;;;;;14.60;10.57;;;16.70;99.90;;;;;;5008034;28;20233;-83
2023/07/04 03:24:40;;;;;;;13.38;10.20;;;16.80;99.90;;;;;;5009171;28;20536;-82
2023/07/04 03:27:11;;;;;;;12.77;10.23;;;16.90;99.90;;;;;;5011530;28;20202;-82
2023/07/04 03:29:45;;;;;;;11.57;9.10;;;17.00;99.90;;;;;;5011530;28;20567;-82
2023/07/04 03:32:16;;;;;;;11.38;9.73;;;17.00;99.90;;;;;;5012438;28;20197;-81
2023/07/04 03:34:47;;;;;;;12.40;10.25;;;17.10;99.90;;;;;;5012112;28;20219;-80
2023/07/04 03:37:18;;;;;;;14.10;10.32;;;17.10;99.90;;;;;;4992255;28;20669;-81
2023/07/04 03:39:49;;;;;;;12.65;9.50;;;17.20;99.90;;;;;;4996354;28;20194;-81
2023/07/04 03:42:20;;;;;;;12.48;9.77;;;17.10;99.90;;;;;;5011501;28;20202;-81
2023/07/04 03:44:53;;;;;;;13.55;10.35;;;17.10;99.90;;;;;;5010533;28;20595;-82
2023/07/04 03:47:24;;;;;;;11.90;9.57;;;17.10;99.90;;;;;;5011350;28;20201;-83
2023/07/04 03:49:56;;;;;;;10.70;8.80;;;17.10;99.90;;;;;;5011212;28;20198;-82
2023/07/04 03:52:27;;;;;;;13.70;10.65;;;17.10;99.90;;;;;;5020712;28;20245;-82
2023/07/04 03:54:58;;;;;;;13.65;9.98;;;17.10;99.90;;;;;;4991784;28;20205;-83
2023/07/04 03:57:30;;;;;;;11.38;9.48;;;17.10;99.90;;;;;;4991272;28;20202;-82
2023/07/04 04:00:04;;;;;;;11.10;8.85;;;17.10;99.90;;;;;;4991320;28;20547;-82
2023/07/04 04:02:35;;;;;;;11.60;9.55;;;17.10;99.90;;;;;;4991343;28;20194;-82
2023/07/04 04:05:06;;;;;;;13.05;10.63;;;17.10;99.90;;;;;;4991422;28;20596;-81
2023/07/04 04:07:37;;;;;;;12.63;10.68;;;17.10;99.90;;;;;;4991182;28;20202;-81
2023/07/04 04:10:09;;;;;;;13.50;10.90;;;17.10;99.90;;;;;;5001371;28;20228;-81
2023/07/04 04:12:40;;;;;;;10.80;9.70;;;17.20;99.90;;;;;;5010641;28;20687;-82
2023/07/04 04:15:14;;;;;;;15.07;10.68;;;17.20;99.90;;;;;;5010655;28;20205;-82
2023/07/04 04:17:45;;;;;;;11.95;9.88;;;17.20;99.90;;;;;;5009408;28;20209;-81
2023/07/04 04:20:18;;;;;;;9.77;8.20;;;17.20;99.90;;;;;;5011064;28;20261;-82
2023/07/04 04:22:51;;;;;;;10.05;8.07;;;17.20;99.90;;;;;;5011087;28;20198;-82
2023/07/04 04:25:22;;;;;;;11.98;9.13;;;17.20;99.90;;;;;;5010738;28;20233;-82
2023/07/04 04:27:53;;;;;;;9.32;8.02;;;17.20;99.90;;;;;;5009740;28;20603;-81
2023/07/04 04:30:26;;;;;;;9.73;8.13;;;17.10;99.90;;;;;;5010569;28;20197;-83
2023/07/04 04:32:57;;;;;;;12.57;9.80;;;17.20;99.90;;;;;;5009614;28;20189;-83
2023/07/04 04:35:28;;;;;;;13.13;10.45;;;17.20;99.90;;;;;;5010644;28;20217;-82
2023/07/04 04:38:00;;;;;;;17.55;14.30;;;17.30;99.90;;;;;;5010636;28;20204;-82
2023/07/04 04:40:34;;;;;;;20.65;16.27;;;17.20;99.90;;;;;;5010407;28;20220;-83
2023/07/04 04:43:05;;;;;;;17.63;15.55;;;17.20;99.90;;;;;;5007846;28;20197;-83
2023/07/04 04:45:38;;;;;;;22.65;17.58;;;17.20;99.90;;;;;;4991223;28;20570;-83
2023/07/04 04:48:09;;;;;;;23.42;17.25;;;17.10;99.90;;;;;;5001182;28;20249;-82
2023/07/04 04:50:43;;;;;;;24.92;16.73;;;17.00;99.90;;;;;;5008400;28;20197;-83
2023/07/04 04:53:15;;;;;;;23.15;17.17;;;16.90;99.90;;;;;;5010085;28;20240;-82
2023/07/04 04:55:46;;;;;;;25.23;18.08;;;16.80;99.90;;;;;;5010228;28;20256;-82
2023/07/04 04:58:17;;;;;;;25.45;17.70;;;16.80;99.90;;;;;;5010790;28;20198;-83
2023/07/04 05:00:51;;;;;;;24.30;19.02;;;16.70;99.90;;;;;;5002912;28;20218;-82
2023/07/04 05:03:22;;;;;;;27.85;19.05;;;16.70;99.90;;;;;;4990733;28;20198;-82
2023/07/04 05:05:53;;;;;;;25.40;17.42;;;16.70;99.90;;;;;;4992768;28;20210;-83
2023/07/04 05:08:24;;;;;;;23.00;17.90;;;16.60;99.90;;;;;;5009761;28;20201;-82
2023/07/04 05:11:04;;;;;;;22.25;17.48;;;16.50;99.90;;;;;;5010348;28;20198;-82
2023/07/04 05:13:36;;;;;;;23.88;17.25;;;16.40;99.90;;;;;;5010252;28;20194;-83
2023/07/04 05:16:11;;;;;;;22.23;15.82;;;16.40;99.90;;;;;;5010159;28;20198;-82
2023/07/04 05:18:44;;;;;;;24.42;16.67;;;16.40;99.90;;;;;;4988612;28;20286;-82
2023/07/04 05:21:17;;;;;;;21.83;16.20;;;16.40;99.90;;;;;;4991893;28;20587;-83
2023/07/04 05:23:50;;;;;;;23.95;17.52;;;16.40;99.90;;;;;;5009648;28;20252;-82
2023/07/04 05:26:23;;;;;;;23.17;16.00;;;16.30;99.90;;;;;;5013180;28;20229;-84
2023/07/04 05:28:55;;;;;;;25.23;17.27;;;16.30;99.90;;;;;;5010737;28;20198;-83
2023/07/04 05:31:29;;;;;;;23.88;16.10;;;16.30;99.90;;;;;;5012623;28;20201;-84
2023/07/04 05:34:01;;;;;;;20.17;15.07;;;16.30;99.90;;;;;;5012902;28;20205;-84
2023/07/04 05:36:34;;;;;;;19.42;14.88;;;16.20;99.90;;;;;;4994160;28;20281;-84
2023/07/04 05:39:06;;;;;;;18.48;15.10;;;16.20;99.90;;;;;;4994319;28;20233;-83
2023/07/04 05:41:39;;;;;;;18.25;14.23;;;16.20;99.90;;;;;;5009501;28;20198;-85
2023/07/04 05:44:11;;;;;;;18.65;14.05;;;16.20;99.90;;;;;;5013157;28;20222;-84
2023/07/04 05:46:45;;;;;;;17.48;13.60;;;16.20;99.90;;;;;;5013637;28;20224;-83
2023/07/04 05:49:17;;;;;;;18.05;14.30;;;16.20;99.90;;;;;;5014239;28;20201;-83
2023/07/04 05:51:48;;;;;;;16.77;14.18;;;16.10;99.90;;;;;;5017955;28;20234;-83
2023/07/04 05:54:19;;;;;;;18.30;13.02;;;16.10;99.90;;;;;;4994297;28;20202;-82
2023/07/04 05:56:55;;;;;;;16.42;12.85;;;16.10;99.90;;;;;;5009020;28;20561;-83
2023/07/04 05:59:26;;;;;;;16.95;13.40;;;16.10;99.90;;;;;;5013752;28;20564;-85
2023/07/04 06:02:02;;;;;;;17.30;13.50;;;16.10;99.90;;;;;;5013991;28;20206;-83
2023/07/04 06:04:33;;;;;;;17.83;12.45;;;16.10;99.90;;;;;;5013191;28;20221;-83
2023/07/04 06:07:04;;;;;;;15.48;12.57;;;16.20;99.90;;;;;;5013278;28;20202;-83
2023/07/04 06:09:35;;;;;;;14.57;12.15;;;16.20;99.90;;;;;;4999543;28;20599;-82
2023/07/04 06:12:08;;;;;;;16.20;12.55;;;16.20;99.90;;;;;;5003886;28;20201;-84
2023/07/04 06:14:39;;;;;;;18.20;13.80;;;16.20;99.90;;;;;;5013146;28;20212;-83
2023/07/04 06:17:12;;;;;;;15.50;11.93;;;16.20;99.90;;;;;;5003597;28;20198;-82
2023/07/04 06:19:43;;;;;;;18.17;12.70;;;16.20;99.90;;;;;;4993577;28;20199;-82
2023/07/04 06:22:14;;;;;;;18.95;13.48;;;16.20;99.90;;;;;;4993291;28;20226;-82
2023/07/04 06:24:48;;;;;;;18.20;13.30;;;16.30;99.90;;;;;;5002198;28;20225;-84
2023/07/04 06:27:19;;;;;;;18.23;13.65;;;16.30;99.90;;;;;;5013254;28;20642;-83
2023/07/04 06:29:53;;;;;;;16.00;12.43;;;16.20;99.90;;;;;;5013161;28;20206;-80
2023/07/04 06:32:27;;;;;;;15.95;12.52;;;16.20;99.90;;;;;;5012644;28;20206;-82
2023/07/04 06:34:58;;;;;;;16.50;12.55;;;16.20;99.90;;;;;;5012413;28;20202;-83
2023/07/04 06:37:29;;;;;;;18.83;13.38;;;16.20;99.90;;;;;;5012660;28;20194;-82
2023/07/04 06:40:01;;;;;;;20.73;14.70;;;16.20;99.90;;;;;;5012620;28;20209;-83
2023/07/04 06:42:34;;;;;;;17.20;12.95;;;16.20;99.90;;;;;;5006141;28;20213;-83
2023/07/04 06:45:05;;;;;;;16.42;12.90;;;16.20;99.90;;;;;;5001888;28;20276;-81
2023/07/04 06:47:38;;;;;;;18.65;13.85;;;16.20;99.90;;;;;;5012621;28;20208;-82
2023/07/04 06:50:10;;;;;;;18.45;13.35;;;16.20;99.90;;;;;;5012329;28;20198;-83
2023/07/04 06:52:41;;;;;;;19.20;13.65;;;16.20;99.90;;;;;;5011778;28;20320;-82
2023/07/04 06:55:14;;;;;;;17.55;13.05;;;16.20;99.90;;;;;;5012455;28;20616;-82
2023/07/04 06:57:46;;;;;;;15.13;11.77;;;16.20;99.90;;;;;;5010959;28;20202;-82
2023/07/04 07:00:17;;;;;;;17.85;13.30;;;16.20;99.90;;;;;;5000614;28;20203;-82
2023/07/04 07:02:54;;;;;;;15.90;12.23;;;16.20;99.90;;;;;;4993035;28;20199;-82
2023/07/04 07:05:25;;;;;;;18.85;12.10;;;16.20;99.90;;;;;;4992869;28;20241;-82
2023/07/04 07:07:56;;;;;;;18.75;12.95;;;16.20;99.90;;;;;;4992295;28;20210;-83
2023/07/04 07:10:27;;;;;;;16.08;12.15;;;16.10;99.90;;;;;;5002534;28;20222;-83
2023/07/04 07:12:58;;;;;;;17.88;13.43;;;16.10;99.90;;;;;;4993336;28;20190;-82
2023/07/04 07:15:31;;;;;;;17.63;12.63;;;16.10;99.90;;;;;;5008038;28;20209;-83
2023/07/04 07:18:05;;;;;;;17.85;12.90;;;16.10;99.90;;;;;;5011399;28;20198;-84
2023/07/04 07:20:36;;;;;;;18.83;13.93;;;16.10;99.90;;;;;;5012095;28;20202;-83
2023/07/04 07:23:07;;;;;;;19.58;13.68;;;16.00;99.90;;;;;;5011799;28;20213;-83
2023/07/04 07:25:38;;;;;;;18.77;12.20;;;16.10;99.90;;;;;;5011803;28;20217;-86
2023/07/04 07:28:09;;;;;;;15.45;12.18;;;16.00;99.90;;;;;;5010968;28;20639;-84
2023/07/04 07:30:40;;;;;;;16.33;11.60;;;16.00;99.90;;;;;;5011632;28;20194;-85
2023/07/04 07:33:13;;;;;;;18.02;13.02;;;16.00;99.90;;;;;;5009157;28;20207;-84
2023/07/04 07:35:44;;;;;;;17.58;13.07;;;16.00;99.90;;;;;;4992007;28;20203;-86
2023/07/04 07:38:15;;;;;;;18.90;12.88;;;16.00;99.90;;;;;;4991637;28;20195;-84
2023/07/04 07:40:53;;;;;;;17.10;12.52;;;16.00;99.90;;;;;;4991855;28;20195;-84
2023/07/04 07:43:25;;;;;;;15.45;11.73;;;16.00;99.90;;;;;;5005673;28;20198;-84
2023/07/04 07:45:56;;;;;;;17.15;12.57;;;16.00;99.90;;;;;;5009098;28;20218;-85
2023/07/04 07:48:29;;;;;;;18.63;12.50;;;16.00;99.90;;;;;;5011637;28;20194;-84
2023/07/04 07:51:00;;;;;;;48.55;43.35;;;16.00;99.90;;;;;;5002285;28;20255;-83
2023/07/04 07:53:32;;;;;;;82.85;74.50;;;16.00;99.90;;;;;;4991270;28;20234;-84
2023/07/04 07:56:03;;;;;;;31.13;27.45;;;16.00;99.90;;;;;;4992583;28;20205;-85
2023/07/04 07:58:35;;;;;;;25.50;20.58;;;16.10;99.90;;;;;;4992622;28;20198;-84
2023/07/04 08:01:13;;;;;;;20.20;14.55;;;16.10;99.90;;;;;;4991988;28;20195;-83
2023/07/04 08:03:47;;;;;;;17.60;13.35;;;16.10;99.90;;;;;;4992799;28;20208;-83
2023/07/04 08:06:27;;;;;;;17.70;12.55;;;16.10;99.90;;;;;;4992232;28;20230;-84
2023/07/04 08:08:59;;;;;;;15.30;12.05;;;16.10;99.90;;;;;;5008165;28;20249;-84
2023/07/04 08:11:31;;;;;;;15.32;12.43;;;16.10;99.90;;;;;;5010997;28;20210;-84
2023/07/04 08:14:02;;;;;;;17.25;13.13;;;16.10;99.90;;;;;;5010785;28;20198;-84
2023/07/04 08:16:42;;;;;;;17.75;13.25;;;16.10;99.90;;;;;;5011122;28;20571;-83
2023/07/04 08:19:16;;;;;;;18.40;12.52;;;16.10;99.90;;;;;;5010077;28;20206;-84
2023/07/04 08:21:47;;;;;;;17.13;12.85;;;16.10;99.90;;;;;;4991185;28;20277;-83
2023/07/04 08:24:20;;;;;;;16.38;11.95;;;16.10;99.90;;;;;;4992130;28;20568;-84
2023/07/04 08:26:54;;;;;;;18.17;13.15;;;16.10;99.90;;;;;;4991528;28;20280;-83
2023/07/04 08:29:25;;;;;;;17.85;12.60;;;16.10;99.90;;;;;;4990927;28;20214;-83
2023/07/04 08:31:56;;;;;;;17.42;13.27;;;16.10;99.90;;;;;;4991340;28;20286;-84
2023/07/04 08:34:30;;;;;;;18.05;13.93;;;16.10;99.90;;;;;;4991068;28;20195;-84
2023/07/04 08:37:01;;;;;;;20.65;14.18;;;16.10;99.90;;;;;;5007464;28;20198;-82
2023/07/04 08:39:32;;;;;;;18.45;13.30;;;16.10;99.90;;;;;;5012586;28;20201;-86
2023/07/04 08:42:04;;;;;;;17.48;13.38;;;16.10;99.90;;;;;;5000908;28;20224;-85
2023/07/04 08:44:43;;;;;;;19.40;14.55;;;16.10;99.90;;;;;;4996026;28;20198;-85
2023/07/04 08:47:16;;;;;;;18.85;14.73;;;16.10;99.90;;;;;;5010559;28;20205;-85
2023/07/04 08:49:53;;;;;;;20.10;14.38;;;16.10;99.90;;;;;;5011006;28;20206;-85
2023/07/04 08:52:27;;;;;;;17.40;14.10;;;16.10;99.90;;;;;;4992816;28;20244;-85
2023/07/04 08:54:58;;;;;;;18.50;13.65;;;16.10;99.90;;;;;;5010459;28;20194;-84
2023/07/04 08:57:45;;;;;;;22.70;14.52;;;16.10;99.90;;;;;;5010283;28;20247;-84
2023/07/04 09:00:22;;;;;;;20.08;13.60;;;16.10;99.90;;;;;;4991344;28;20210;-83
2023/07/04 09:03:15;;;;;;;18.05;13.55;;;16.00;99.90;;;;;;5002770;28;20772;-84
2023/07/04 09:06:01;;;;;;;17.30;12.88;;;16.00;99.90;;;;;;5009569;28;20229;-83
2023/07/04 09:08:49;;;;;;;15.35;12.80;;;16.00;99.90;;;;;;5014307;28;20198;-83
2023/07/04 09:11:21;;;;;;;16.00;12.43;;;16.00;99.90;;;;;;5014636;28;20198;-83
2023/07/04 09:13:57;;;;;;;16.85;12.32;;;16.10;99.90;;;;;;5014521;28;20280;-84
2023/07/04 09:16:36;;;;;;;15.40;11.77;;;16.10;99.90;;;;;;5013194;28;20209;-83
2023/07/04 09:19:08;;;;;;;19.88;16.77;;;16.00;99.90;;;;;;5013290;28;20194;-84
2023/07/04 09:21:42;;;;;;;18.67;13.43;;;16.10;99.90;;;;;;5013968;28;20202;-84
2023/07/04 09:24:13;;;;;;;17.40;13.77;;;16.10;99.90;;;;;;5014306;28;20201;-84
2023/07/04 09:26:46;;;;;;;16.55;12.60;;;16.00;99.90;;;;;;5012731;28;20229;-84
2023/07/04 09:29:22;;;;;;;17.15;12.45;;;16.00;99.90;;;;;;5013963;28;20202;-83
2023/07/04 09:31:57;;;;;;;16.25;12.02;;;16.00;99.90;;;;;;5014017;28;20291;-83
2023/07/04 09:34:33;;;;;;;15.73;12.13;;;16.00;99.90;;;;;;4994466;28;20202;-84
2023/07/04 09:37:13;;;;;;;14.50;11.48;;;16.00;99.90;;;;;;5002506;28;20210;-84
2023/07/04 09:39:54;;;;;;;14.43;11.13;;;16.00;99.90;;;;;;5013701;28;20205;-84
2023/07/04 09:42:26;;;;;;;13.85;11.38;;;16.10;99.90;;;;;;5013918;28;20669;-84
2023/07/04 09:44:58;;;;;;;15.07;11.52;;;16.00;99.90;;;;;;5005192;28;20209;-85
2023/07/04 09:47:31;;;;;;;13.35;10.88;;;16.00;99.90;;;;;;4997956;28;20670;-84
2023/07/04 09:50:17;;;;;;;12.00;10.70;;;16.00;99.90;;;;;;5000341;28;20209;-85
2023/07/04 09:53:03;;;;;;;13.68;11.65;;;16.10;99.90;;;;;;4999464;28;20226;-84
2023/07/04 09:55:35;;;;;;;13.15;11.27;;;16.10;99.90;;;;;;4994378;28;20190;-83
2023/07/04 09:58:23;;;;;;;12.70;10.70;;;16.00;99.90;;;;;;4997709;28;20194;-83
2023/07/04 10:01:08;;;;;;;12.40;10.45;;;16.00;99.90;;;;;;5006222;28;20205;-84
2023/07/04 10:03:41;;;;;;;13.60;10.57;;;16.10;99.90;;;;;;5011427;28;20252;-83
2023/07/04 10:06:13;;;;;;;12.07;10.10;;;16.10;99.90;;;;;;4994063;28;20237;-83
2023/07/04 10:08:56;;;;;;;12.55;10.55;;;16.10;99.90;;;;;;5009917;28;20448;-85
2023/07/04 10:11:33;;;;;;;12.40;10.30;;;16.00;99.90;;;;;;4999922;28;20205;-84
2023/07/04 10:14:08;;;;;;;12.90;10.75;;;16.00;99.90;;;;;;4999577;28;20202;-84
2023/07/04 10:16:45;;;;;;;11.15;9.18;;;16.10;99.90;;;;;;4994590;28;20199;-84
2023/07/04 10:19:21;;;;;;;11.15;9.52;;;16.00;99.90;;;;;;5013392;28;20204;-85
2023/07/04 10:21:54;;;;;;;10.80;8.90;;;16.00;99.90;;;;;;5013269;28;20208;-84
2023/07/04 10:24:28;;;;;;;11.18;8.82;;;16.00;99.90;;;;;;5000805;28;20272;-84
2023/07/04 10:27:02;;;;;;;10.30;9.20;;;16.00;99.90;;;;;;5004979;28;20222;-83
2023/07/04 10:29:38;;;;;;;10.40;9.00;;;16.10;99.90;;;;;;4996826;28;20651;-84
2023/07/04 10:32:14;;;;;;;10.40;9.25;;;16.10;99.90;;;;;;5012854;28;20689;-85
2023/07/04 10:34:48;;;;;;;11.45;9.75;;;16.10;99.90;;;;;;5011512;28;20289;-85
2023/07/04 10:37:27;;;;;;;9.90;8.48;;;16.10;99.90;;;;;;4993943;28;20205;-84
2023/07/04 10:40:02;;;;;;;9.48;8.38;;;16.10;99.90;;;;;;5011156;28;20194;-83
2023/07/04 10:42:40;;;;;;;10.15;8.40;;;16.10;99.90;;;;;;5004354;28;20677;-84
2023/07/04 10:45:17;;;;;;;9.38;7.95;;;16.10;99.90;;;;;;5003356;28;20206;-84
2023/07/04 10:47:51;;;;;;;9.70;8.70;;;16.10;99.90;;;;;;5007006;28;20216;-84
2023/07/04 10:50:28;;;;;;;10.45;8.32;;;16.10;99.90;;;;;;5003211;28;20208;-83
2023/07/04 10:52:59;;;;;;;9.65;8.65;;;16.10;99.90;;;;;;4999347;28;20226;-84
2023/07/04 10:55:39;;;;;;;10.57;8.70;;;16.10;99.90;;;;;;4993272;28;20198;-84
2023/07/04 10:58:15;;;;;;;10.23;9.13;;;16.10;99.90;;;;;;4999004;28;20639;-84
2023/07/04 11:00:51;;;;;;;11.55;10.05;;;16.10;99.90;;;;;;5008942;28;20580;-84
2023/07/04 11:03:27;;;;;;;11.75;10.45;;;16.10;99.90;;;;;;4999519;28;20198;-82
2023/07/04 11:06:00;;;;;;;12.77;10.27;;;16.10;99.90;;;;;;4993230;28;20284;-84
2023/07/04 11:08:35;;;;;;;15.15;11.40;;;16.10;99.90;;;;;;4992937;28;20280;-85
2023/07/04 11:11:13;;;;;;;14.18;11.30;;;16.10;99.90;;;;;;5001399;28;20201;-83
2023/07/04 11:13:53;;;;;;;14.02;11.40;;;16.10;99.90;;;;;;5009315;28;20198;-83
2023/07/04 11:16:27;;;;;;;14.60;11.30;;;16.10;99.90;;;;;;5000197;28;20202;-85
2023/07/04 11:19:07;;;;;;;15.77;11.30;;;16.10;99.90;;;;;;5012310;28;20556;-85
2023/07/04 11:21:58;;;;;;;15.57;11.30;;;16.20;99.90;;;;;;5009616;28;20733;-85
2023/07/04 11:24:34;;;;;;;12.15;10.30;;;16.10;99.90;;;;;;5003153;28;20195;-83
2023/07/04 11:27:15;;;;;;;14.55;11.38;;;16.10;99.90;;;;;;4992320;28;20574;-83
2023/07/04 11:29:53;;;;;;;13.63;10.75;;;16.20;99.90;;;;;;4991453;28;20203;-85
2023/07/04 11:32:27;;;;;;;12.45;10.93;;;16.10;99.90;;;;;;4999642;28;20205;-84
2023/07/04 11:35:16;;;;;;;12.55;10.73;;;16.20;99.90;;;;;;5005420;28;20301;-83
2023/07/04 11:37:53;;;;;;;11.45;10.05;;;16.10;99.90;;;;;;4996259;28;20194;-84
2023/07/04 11:40:30;;;;;;;11.30;10.10;;;16.10;99.90;;;;;;5005947;28;20194;-83
2023/07/04 11:43:15;;;;;;;12.30;10.63;;;16.20;99.90;;;;;;4991690;28;20588;-83
2023/07/04 11:45:46;;;;;;;11.35;9.77;;;16.20;99.90;;;;;;4991637;28;20199;-84
2023/07/04 11:48:20;;;;;;;11.95;10.55;;;16.20;99.90;;;;;;4994947;28;20202;-83
2023/07/04 11:50:54;;;;;;;13.55;11.00;;;16.10;99.90;;;;;;5009524;28;20197;-84
2023/07/04 11:53:41;;;;;;;11.43;9.90;;;16.10;99.90;;;;;;4993830;28;20230;-83
2023/07/04 11:56:23;;;;;;;11.02;9.27;;;16.10;99.90;;;;;;4991415;28;20206;-84
2023/07/04 11:59:42;;;;;;;11.82;9.85;;;16.10;99.90;;;;;;4984059;28;20618;-84
2023/07/04 12:02:27;;;;;;;9.50;8.50;;;16.10;99.90;;;;;;4875339;29;20532;-85
2023/07/04 12:05:00;;;;;;;8.60;7.70;;;16.00;99.90;;;;;;4963239;28;20203;-85
2023/07/04 12:07:42;;;;;;;9.65;8.63;;;16.10;99.90;;;;;;4962156;28;20264;-84
2023/07/04 12:10:19;;;;;;;10.60;8.88;;;16.10;99.90;;;;;;4952905;28;20330;-85
2023/07/04 12:12:59;;;;;;;9.13;7.78;;;16.10;99.90;;;;;;4962851;28;20199;-85
2023/07/04 12:15:35;;;;;;;8.77;7.88;;;16.00;99.90;;;;;;4955817;28;20282;-84
2023/07/04 12:18:21;;;;;;;8.65;7.75;;;16.00;99.90;;;;;;4957539;28;20195;-84
2023/07/04 12:20:52;;;;;;;9.25;7.75;;;16.10;99.90;;;;;;4972778;28;20679;-83
2023/07/04 12:23:25;;;;;;;9.07;7.95;;;16.00;99.90;;;;;;4971095;28;20207;-85
2023/07/04 12:26:00;;;;;;;8.73;7.30;;;16.00;99.90;;;;;;4970807;28;20266;-84
2023/07/04 12:28:33;;;;;;;9.55;8.50;;;16.00;99.90;;;;;;4971933;28;20203;-84
2023/07/04 12:31:07;;;;;;;8.93;8.00;;;16.00;99.90;;;;;;4956098;28;20204;-83
2023/07/04 12:33:44;;;;;;;9.70;7.97;;;16.10;99.90;;;;;;4952401;29;20240;-84
2023/07/04 12:36:19;;;;;;;9.20;8.05;;;16.00;99.90;;;;;;4952549;28;20238;-84
2023/07/04 12:38:52;;;;;;;9.65;7.90;;;16.00;99.90;;;;;;4965268;28;20254;-83
2023/07/04 12:41:26;;;;;;;9.95;8.07;;;16.10;99.90;;;;;;4970797;28;20207;-81
2023/07/04 12:44:01;;;;;;;9.55;8.30;;;16.00;99.90;;;;;;4971488;28;20199;-84
2023/07/04 12:46:35;;;;;;;8.73;7.78;;;16.00;99.90;;;;;;4971425;28;20215;-83
2023/07/04 12:49:07;;;;;;;9.50;8.50;;;16.00;99.90;;;;;;4970518;28;20270;-83
2023/07/04 12:51:39;;;;;;;8.95;7.68;;;16.00;99.90;;;;;;4973752;28;20217;-84
2023/07/04 12:54:13;;;;;;;10.60;8.60;;;16.00;99.90;;;;;;5009081;28;20194;-84
2023/07/04 12:56:47;;;;;;;9.20;7.70;;;15.90;99.90;;;;;;4996255;28;20298;-84
2023/07/04 12:59:35;;;;;;;9.43;7.85;;;16.00;99.90;;;;;;4972792;28;20201;-83
2023/07/04 13:02:17;;;;;;;9.02;8.00;;;15.90;99.90;;;;;;4974181;28;20188;-84
2023/07/04 13:04:48;;;;;;;10.32;8.15;;;15.90;99.90;;;;;;4982098;28;20203;-83